createdAt,value
2018-09-17T00:01:22.026Z,12.90
2018-09-17T00:03:49.679Z,12.90
2018-09-17T00:06:17.368Z,12.90
2018-09-17T00:08:44.973Z,12.80
2018-09-17T00:11:12.644Z,12.80
2018-09-17T00:13:40.300Z,12.80
2018-09-17T00:16:07.959Z,12.80
2018-09-17T00:18:35.644Z,12.70
2018-09-17T00:21:03.439Z,12.70
2018-09-17T00:23:31.055Z,12.60
2018-09-17T00:25:58.703Z,12.60
2018-09-17T00:28:26.350Z,12.60
2018-09-17T00:30:53.969Z,12.60
2018-09-17T00:33:21.648Z,12.60
2018-09-17T00:35:51.317Z,12.60
2018-09-17T00:38:18.957Z,12.60
2018-09-17T00:40:47.257Z,12.60
2018-09-17T00:43:14.925Z,12.50
2018-09-17T00:45:42.522Z,12.50
2018-09-17T00:48:10.146Z,12.60
2018-09-17T00:50:37.842Z,12.60
2018-09-17T00:53:05.949Z,12.60
2018-09-17T00:55:33.557Z,12.50
2018-09-17T00:58:01.279Z,12.30
2018-09-17T01:00:28.860Z,12.30
2018-09-17T01:02:56.506Z,12.40
2018-09-17T01:05:24.124Z,12.40
2018-09-17T01:07:51.725Z,12.40
2018-09-17T01:10:19.345Z,12.30
2018-09-17T01:12:47.000Z,12.20
2018-09-17T01:15:14.626Z,12.20
2018-09-17T01:17:42.223Z,12.20
2018-09-17T01:20:09.813Z,12.10
2018-09-17T01:22:37.484Z,12.10
2018-09-17T01:25:05.093Z,12.10
2018-09-17T01:27:32.711Z,12.10
2018-09-17T01:30:00.298Z,12.00
2018-09-17T01:32:27.940Z,12.00
2018-09-17T01:34:55.546Z,12.10
2018-09-17T01:37:23.167Z,11.90
2018-09-17T01:39:50.861Z,11.90
2018-09-17T01:42:18.482Z,11.90
2018-09-17T01:44:46.499Z,11.90
2018-09-17T01:47:14.154Z,11.80
2018-09-17T01:49:41.777Z,11.90
2018-09-17T01:52:09.445Z,11.90
2018-09-17T01:54:37.046Z,11.90
2018-09-17T01:57:04.721Z,11.80
2018-09-17T01:59:32.393Z,11.80
2018-09-17T02:02:00.012Z,11.70
2018-09-17T02:04:27.624Z,11.70
2018-09-17T02:06:55.236Z,11.70
2018-09-17T02:09:35.282Z,11.60
2018-09-17T02:12:02.847Z,11.60
2018-09-17T02:14:30.476Z,11.60
2018-09-17T02:16:58.189Z,11.50
2018-09-17T02:19:25.790Z,11.40
2018-09-17T02:21:53.465Z,11.40
2018-09-17T02:24:21.066Z,11.40
2018-09-17T02:26:48.761Z,11.40
2018-09-17T02:29:16.382Z,11.40
2018-09-17T02:31:43.983Z,11.50
2018-09-17T02:34:11.628Z,11.40
2018-09-17T02:36:39.241Z,11.40
2018-09-17T02:39:07.069Z,11.40
2018-09-17T02:41:34.681Z,11.30
2018-09-17T02:44:02.340Z,11.30
2018-09-17T02:46:29.938Z,11.30
2018-09-17T02:48:57.573Z,11.30
2018-09-17T02:51:25.497Z,11.20
2018-09-17T02:53:53.098Z,11.30
2018-09-17T02:56:20.773Z,11.30
2018-09-17T02:58:48.495Z,11.20
2018-09-17T03:01:16.221Z,11.20
2018-09-17T03:03:43.826Z,11.10
2018-09-17T03:06:11.580Z,11.10
2018-09-17T03:08:39.214Z,11.10
2018-09-17T03:11:06.919Z,11.10
2018-09-17T03:13:34.573Z,11.10
2018-09-17T03:16:02.165Z,11.10
2018-09-17T03:18:36.738Z,10.90
2018-09-17T03:21:05.493Z,10.90
2018-09-17T03:23:34.714Z,10.90
2018-09-17T03:26:02.390Z,10.90
2018-09-17T03:28:33.849Z,10.80
2018-09-17T03:31:01.503Z,10.80
2018-09-17T03:33:29.475Z,10.80
2018-09-17T03:35:57.141Z,10.80
2018-09-17T03:38:32.544Z,10.80
2018-09-17T03:41:01.230Z,10.80
2018-09-17T03:43:29.035Z,10.80
2018-09-17T03:45:56.687Z,10.70
2018-09-17T03:48:24.363Z,10.80
2018-09-17T03:50:51.978Z,10.80
2018-09-17T03:53:19.593Z,10.70
2018-09-17T03:55:47.195Z,10.70
2018-09-17T03:58:14.829Z,10.70
2018-09-17T04:00:42.457Z,10.60
2018-09-17T04:03:10.262Z,10.70
2018-09-17T04:05:37.890Z,10.70
2018-09-17T04:08:05.518Z,10.60
2018-09-17T04:10:33.150Z,10.60
2018-09-17T04:13:00.795Z,10.70
2018-09-17T04:15:28.674Z,10.70
2018-09-17T04:17:56.918Z,10.60
2018-09-17T04:20:25.869Z,10.60
2018-09-17T04:22:53.484Z,10.50
2018-09-17T04:25:21.122Z,10.50
2018-09-17T04:27:48.778Z,10.50
2018-09-17T04:30:21.082Z,10.60
2018-09-17T04:32:48.734Z,10.60
2018-09-17T04:35:16.398Z,10.50
2018-09-17T04:37:44.021Z,10.40
2018-09-17T04:40:11.644Z,10.40
2018-09-17T04:42:40.588Z,10.40
2018-09-17T04:45:08.220Z,10.40
2018-09-17T04:47:36.009Z,10.40
2018-09-17T04:50:03.746Z,10.40
2018-09-17T04:52:31.879Z,10.40
2018-09-17T04:54:59.507Z,10.30
2018-09-17T04:57:32.922Z,10.40
2018-09-17T05:00:00.546Z,10.30
2018-09-17T05:02:28.163Z,10.30
2018-09-17T05:04:55.797Z,10.30
2018-09-17T05:07:23.455Z,10.30
2018-09-17T05:09:51.098Z,10.30
2018-09-17T05:12:19.013Z,10.40
2018-09-17T05:14:46.683Z,10.40
2018-09-17T05:17:14.329Z,10.30
2018-09-17T05:19:41.962Z,10.40
2018-09-17T05:22:17.772Z,10.30
2018-09-17T05:24:45.396Z,10.30
2018-09-17T05:27:12.937Z,10.30
2018-09-17T05:29:40.569Z,10.30
2018-09-17T05:32:11.764Z,10.30
2018-09-17T05:34:39.408Z,10.40
2018-09-17T05:39:53.784Z,10.60
2018-09-17T05:42:21.374Z,10.50
2018-09-17T05:44:49.049Z,10.60
2018-09-17T05:47:16.715Z,10.70
2018-09-17T05:49:44.438Z,10.70
2018-09-17T05:52:12.040Z,10.80
2018-09-17T05:54:39.669Z,11.00
2018-09-17T05:57:14.709Z,11.10
2018-09-17T05:59:42.586Z,11.20
2018-09-17T06:02:10.315Z,11.30
2018-09-17T06:04:38.025Z,11.50
2018-09-17T06:07:05.882Z,11.70
2018-09-17T06:09:33.651Z,11.80
2018-09-17T06:12:01.378Z,11.90
2018-09-17T06:14:29.075Z,12.10
2018-09-17T06:16:56.859Z,12.10
2018-09-17T06:19:24.602Z,12.40
2018-09-17T06:21:52.230Z,12.60
2018-09-17T06:24:19.841Z,12.80
2018-09-17T06:26:47.490Z,13.00
2018-09-17T06:29:15.216Z,13.20
2018-09-17T06:31:42.849Z,13.30
2018-09-17T06:34:10.485Z,13.50
2018-09-17T06:36:38.197Z,13.70
2018-09-17T06:39:06.500Z,13.80
2018-09-17T06:41:34.173Z,14.10
2018-09-17T06:44:01.750Z,14.30
2018-09-17T06:46:29.391Z,14.60
2018-09-17T06:48:57.076Z,15.00
2018-09-17T06:51:24.758Z,15.20
2018-09-17T06:53:52.396Z,15.40
2018-09-17T06:56:20.065Z,15.70
2018-09-17T06:58:48.129Z,16.00
2018-09-17T07:01:15.780Z,16.00
2018-09-17T07:03:43.345Z,16.20
2018-09-17T07:06:12.018Z,16.40
2018-09-17T07:08:39.729Z,16.60
2018-09-17T07:11:07.393Z,16.60
2018-09-17T07:13:35.023Z,16.70
2018-09-17T07:16:02.696Z,16.80
2018-09-17T07:18:30.430Z,17.00
2018-09-17T07:20:58.105Z,17.10
2018-09-17T07:23:25.723Z,17.20
2018-09-17T07:25:53.307Z,17.20
2018-09-17T07:28:21.141Z,17.50
2018-09-17T07:30:48.721Z,17.90
2018-09-17T07:33:16.391Z,18.10
2018-09-17T07:35:49.139Z,18.20
2018-09-17T07:38:16.936Z,18.30
2018-09-17T07:40:44.585Z,18.50
2018-09-17T07:43:12.301Z,18.60
2018-09-17T07:45:40.053Z,18.90
2018-09-17T07:48:07.647Z,19.00
2018-09-17T07:50:35.281Z,19.30
2018-09-17T07:53:07.296Z,19.40
2018-09-17T07:55:34.952Z,19.50
2018-09-17T07:58:20.934Z,19.60
2018-09-17T08:00:49.893Z,19.60
2018-09-17T08:03:17.624Z,19.80
2018-09-17T08:05:52.719Z,20.00
2018-09-17T08:08:20.418Z,20.30
2018-09-17T08:10:49.209Z,20.60
2018-09-17T08:13:25.255Z,20.80
2018-09-17T08:15:53.082Z,21.00
2018-09-17T08:18:20.843Z,21.00
2018-09-17T08:20:48.550Z,21.20
2018-09-17T08:23:17.290Z,21.30
2018-09-17T08:25:49.458Z,21.40
2018-09-17T08:28:18.281Z,21.50
2018-09-17T08:30:50.629Z,21.50
2018-09-17T08:33:19.329Z,21.50
2018-09-17T08:35:47.051Z,21.60
2018-09-17T08:38:14.836Z,21.70
2018-09-17T08:40:42.486Z,21.70
2018-09-17T08:43:10.246Z,21.90
2018-09-17T08:45:38.040Z,22.10
2018-09-17T08:48:05.767Z,22.30
2018-09-17T08:50:33.597Z,22.70
2018-09-17T08:53:01.427Z,23.00
2018-09-17T08:55:34.370Z,23.30
2018-09-17T08:58:07.667Z,23.50
2018-09-17T09:00:40.652Z,23.70
2018-09-17T09:03:11.263Z,23.90
2018-09-17T09:05:42.903Z,24.10
2018-09-17T09:08:10.582Z,24.20
2018-09-17T09:10:43.634Z,24.10
2018-09-17T09:13:24.401Z,24.10
2018-09-17T09:15:55.983Z,24.20
2018-09-17T09:18:23.711Z,24.50
2018-09-17T09:20:51.359Z,24.60
2018-09-17T09:23:19.058Z,24.80
2018-09-17T09:25:46.691Z,24.90
2018-09-17T09:28:14.523Z,24.80
2018-09-17T09:30:49.094Z,24.90
2018-09-17T09:33:17.569Z,24.90
2018-09-17T09:35:45.346Z,25.20
2018-09-17T09:38:13.149Z,25.40
2018-09-17T09:40:41.394Z,25.80
2018-09-17T09:43:09.091Z,26.00
2018-09-17T09:45:36.849Z,26.20
2018-09-17T09:48:09.107Z,26.30
2018-09-17T09:50:36.772Z,26.30
2018-09-17T09:53:04.351Z,26.40
2018-09-17T09:55:31.937Z,26.60
2018-09-17T09:57:59.653Z,26.60
2018-09-17T10:00:32.747Z,26.80
2018-09-17T10:03:01.794Z,26.90
2018-09-17T10:05:29.750Z,26.90
2018-09-17T10:07:57.442Z,27.00
2018-09-17T10:10:33.901Z,27.00
2018-09-17T10:13:17.461Z,27.00
2018-09-17T10:15:49.793Z,27.20
2018-09-17T10:18:22.717Z,27.40
2018-09-17T10:20:50.305Z,27.40
2018-09-17T10:23:17.946Z,27.30
2018-09-17T10:25:45.577Z,27.20
2018-09-17T10:28:13.167Z,27.30
2018-09-17T10:30:41.824Z,27.50
2018-09-17T10:33:09.427Z,27.80
2018-09-17T10:35:37.126Z,27.90
2018-09-17T10:38:04.729Z,27.90
2018-09-17T10:40:32.357Z,28.00
2018-09-17T10:42:59.981Z,28.00
2018-09-17T10:45:27.594Z,27.90
2018-09-17T10:47:55.242Z,27.90
2018-09-17T10:50:23.030Z,28.00
2018-09-17T10:52:50.684Z,28.40
2018-09-17T10:55:18.273Z,28.60
2018-09-17T10:57:45.923Z,28.60
2018-09-17T11:00:13.579Z,28.60
2018-09-17T11:02:41.273Z,28.70
2018-09-17T11:05:18.652Z,28.90
2018-09-17T11:07:46.293Z,29.10
2018-09-17T11:10:14.781Z,29.20
2018-09-17T11:12:42.506Z,29.20
2018-09-17T11:15:10.182Z,29.10
2018-09-17T11:17:37.864Z,28.80
2018-09-17T11:20:05.681Z,28.60
2018-09-17T11:22:34.180Z,28.20
2018-09-17T11:25:01.969Z,28.40
2018-09-17T11:27:29.614Z,28.40
2018-09-17T11:29:57.272Z,28.30
2018-09-17T11:32:24.882Z,28.30
2018-09-17T11:34:52.515Z,28.30
2018-09-17T11:37:20.135Z,28.10
2018-09-17T11:39:47.855Z,28.10
2018-09-17T11:42:21.793Z,28.30
2018-09-17T11:44:50.341Z,28.50
2018-09-17T11:47:17.973Z,28.40
2018-09-17T11:49:49.301Z,28.00
2018-09-17T11:52:16.981Z,28.20
2018-09-17T11:54:44.809Z,28.40
2018-09-17T11:57:12.478Z,28.60
2018-09-17T11:59:40.207Z,28.80
2018-09-17T12:02:13.359Z,28.80
2018-09-17T12:04:46.529Z,28.50
2018-09-17T12:07:50.245Z,28.70
2018-09-17T12:10:17.913Z,28.80
2018-09-17T12:12:45.541Z,29.00
2018-09-17T12:15:13.253Z,29.00
2018-09-17T12:17:40.996Z,28.90
2018-09-17T12:20:12.491Z,29.10
2018-09-17T12:22:40.167Z,29.30
2018-09-17T12:25:07.841Z,29.30
2018-09-17T12:27:40.769Z,29.40
2018-09-17T12:30:08.511Z,29.20
2018-09-17T12:32:49.337Z,29.10
2018-09-17T12:35:16.957Z,28.90
2018-09-17T12:37:44.588Z,28.70
2018-09-17T12:40:12.344Z,28.80
2018-09-17T12:42:39.954Z,28.80
2018-09-17T12:45:07.626Z,28.90
2018-09-17T12:47:35.274Z,28.90
2018-09-17T12:50:02.953Z,29.00
2018-09-17T12:52:30.642Z,29.10
2018-09-17T12:54:58.504Z,28.90
2018-09-17T12:57:38.771Z,28.70
2018-09-17T13:00:07.164Z,28.60
2018-09-17T13:02:34.787Z,28.50
2018-09-17T13:05:02.466Z,28.40
2018-09-17T13:07:30.259Z,28.40
2018-09-17T13:09:58.093Z,28.30
2018-09-17T13:12:25.719Z,28.30
2018-09-17T13:14:53.525Z,28.50
2018-09-17T13:17:21.106Z,28.20
2018-09-17T13:19:48.763Z,28.30
2018-09-17T13:22:16.565Z,28.30
2018-09-17T13:24:45.347Z,28.10
2018-09-17T13:27:13.129Z,28.10
2018-09-17T13:29:45.025Z,28.00
2018-09-17T13:32:15.930Z,28.10
2018-09-17T13:34:54.752Z,28.30
2018-09-17T13:37:22.708Z,28.20
2018-09-17T13:39:55.913Z,28.40
2018-09-17T13:42:30.708Z,28.40
2018-09-17T13:47:50.622Z,28.60
2018-09-17T13:52:59.242Z,28.60
2018-09-17T14:53:56.467Z,27.60
2018-09-17T14:56:32.071Z,27.60
2018-09-17T14:59:02.300Z,27.40
2018-09-17T15:48:43.138Z,26.80
2018-09-17T17:03:21.622Z,26.70
2018-09-17T17:14:14.804Z,24.40
2018-09-17T17:19:29.497Z,24.10
